sensor_id;sensor_type;location;lat;lon;timestamp;temperature;humidity
44851;DHT22;30583;48.714;9.386;2023-07-13T00:00:19;27.40;48.40
44851;DHT22;30583;48.714;9.386;2023-07-13T00:02:45;27.30;47.80
44851;DHT22;30583;48.714;9.386;2023-07-13T00:05:11;26.80;48.00
44851;DHT22;30583;48.714;9.386;2023-07-13T00:07:36;26.70;46.40
44851;DHT22;30583;48.714;9.386;2023-07-13T00:10:03;26.80;45.30
44851;DHT22;30583;48.714;9.386;2023-07-13T00:12:32;26.60;44.50
44851;DHT22;30583;48.714;9.386;2023-07-13T00:14:59;26.40;45.40
44851;DHT22;30583;48.714;9.386;2023-07-13T00:17:26;26.10;48.00
44851;DHT22;30583;48.714;9.386;2023-07-13T00:19:52;26.10;48.70
44851;DHT22;30583;48.714;9.386;2023-07-13T00:22:18;25.50;49.20
44851;DHT22;30583;48.714;9.386;2023-07-13T00:24:44;26.10;47.60
44851;DHT22;30583;48.714;9.386;2023-07-13T00:27:10;26.20;47.20
44851;DHT22;30583;48.714;9.386;2023-07-13T00:29:37;26.60;44.30
44851;DHT22;30583;48.714;9.386;2023-07-13T00:32:06;27.10;44.20
44851;DHT22;30583;48.714;9.386;2023-07-13T00:34:32;27.00;43.40
44851;DHT22;30583;48.714;9.386;2023-07-13T00:36:58;26.90;43.50
44851;DHT22;30583;48.714;9.386;2023-07-13T00:39:24;26.80;44.30
44851;DHT22;30583;48.714;9.386;2023-07-13T00:41:51;26.70;44.50
44851;DHT22;30583;48.714;9.386;2023-07-13T00:44:18;26.70;44.20
44851;DHT22;30583;48.714;9.386;2023-07-13T00:46:44;26.80;43.40
44851;DHT22;30583;48.714;9.386;2023-07-13T00:49:15;26.70;43.80
44851;DHT22;30583;48.714;9.386;2023-07-13T00:51:48;26.80;44.70
44851;DHT22;30583;48.714;9.386;2023-07-13T00:54:18;26.70;44.00
44851;DHT22;30583;48.714;9.386;2023-07-13T00:56:47;26.60;45.20
44851;DHT22;30583;48.714;9.386;2023-07-13T00:59:15;26.60;44.30
44851;DHT22;30583;48.714;9.386;2023-07-13T01:01:42;26.60;44.80
44851;DHT22;30583;48.714;9.386;2023-07-13T01:04:08;26.70;43.40
44851;DHT22;30583;48.714;9.386;2023-07-13T01:06:37;26.80;43.70
44851;DHT22;30583;48.714;9.386;2023-07-13T01:09:06;27.00;43.10
44851;DHT22;30583;48.714;9.386;2023-07-13T01:11:33;26.70;43.10
44851;DHT22;30583;48.714;9.386;2023-07-13T01:14:00;27.20;43.20
44851;DHT22;30583;48.714;9.386;2023-07-13T01:16:33;27.20;42.90
44851;DHT22;30583;48.714;9.386;2023-07-13T01:18:58;27.10;43.30
44851;DHT22;30583;48.714;9.386;2023-07-13T01:21:27;26.70;43.70
44851;DHT22;30583;48.714;9.386;2023-07-13T01:23:53;26.70;43.90
44851;DHT22;30583;48.714;9.386;2023-07-13T01:26:18;26.20;44.70
44851;DHT22;30583;48.714;9.386;2023-07-13T01:28:44;26.30;44.20
44851;DHT22;30583;48.714;9.386;2023-07-13T01:31:10;26.20;43.00
44851;DHT22;30583;48.714;9.386;2023-07-13T01:33:38;26.30;43.30
44851;DHT22;30583;48.714;9.386;2023-07-13T01:36:06;26.20;42.80
44851;DHT22;30583;48.714;9.386;2023-07-13T01:38:32;26.20;43.60
44851;DHT22;30583;48.714;9.386;2023-07-13T01:40:59;26.20;43.20
44851;DHT22;30583;48.714;9.386;2023-07-13T01:43:25;25.80;45.40
44851;DHT22;30583;48.714;9.386;2023-07-13T01:45:50;26.00;45.80
44851;DHT22;30583;48.714;9.386;2023-07-13T01:48:16;26.20;45.60
44851;DHT22;30583;48.714;9.386;2023-07-13T01:50:42;26.20;45.10
44851;DHT22;30583;48.714;9.386;2023-07-13T01:53:08;26.20;45.10
44851;DHT22;30583;48.714;9.386;2023-07-13T01:55:34;26.30;44.60
44851;DHT22;30583;48.714;9.386;2023-07-13T01:58:00;26.60;43.60
44851;DHT22;30583;48.714;9.386;2023-07-13T02:00:26;26.80;43.70
44851;DHT22;30583;48.714;9.386;2023-07-13T02:02:51;26.80;43.20
44851;DHT22;30583;48.714;9.386;2023-07-13T02:05:17;26.40;43.60
44851;DHT22;30583;48.714;9.386;2023-07-13T02:07:43;25.80;44.70
44851;DHT22;30583;48.714;9.386;2023-07-13T02:10:10;25.70;45.40
44851;DHT22;30583;48.714;9.386;2023-07-13T02:12:36;25.50;46.30
44851;DHT22;30583;48.714;9.386;2023-07-13T02:15:03;25.20;47.00
44851;DHT22;30583;48.714;9.386;2023-07-13T02:17:29;25.10;47.30
44851;DHT22;30583;48.714;9.386;2023-07-13T02:19:54;25.10;47.70
44851;DHT22;30583;48.714;9.386;2023-07-13T02:22:20;24.80;47.70
44851;DHT22;30583;48.714;9.386;2023-07-13T02:24:46;24.50;47.90
44851;DHT22;30583;48.714;9.386;2023-07-13T02:27:12;24.40;47.90
44851;DHT22;30583;48.714;9.386;2023-07-13T02:29:37;24.40;47.60
44851;DHT22;30583;48.714;9.386;2023-07-13T02:32:03;24.60;47.50
44851;DHT22;30583;48.714;9.386;2023-07-13T02:34:29;24.60;47.90
44851;DHT22;30583;48.714;9.386;2023-07-13T02:36:54;24.50;48.30
44851;DHT22;30583;48.714;9.386;2023-07-13T02:39:20;24.50;48.70
44851;DHT22;30583;48.714;9.386;2023-07-13T02:41:45;24.40;49.00
44851;DHT22;30583;48.714;9.386;2023-07-13T02:44:13;24.20;49.30
44851;DHT22;30583;48.714;9.386;2023-07-13T02:46:39;24.20;49.30
44851;DHT22;30583;48.714;9.386;2023-07-13T02:49:05;24.00;49.80
44851;DHT22;30583;48.714;9.386;2023-07-13T02:51:31;24.10;49.50
44851;DHT22;30583;48.714;9.386;2023-07-13T02:54:02;24.10;49.20
44851;DHT22;30583;48.714;9.386;2023-07-13T02:56:29;24.10;49.40
44851;DHT22;30583;48.714;9.386;2023-07-13T02:58:56;24.10;49.40
44851;DHT22;30583;48.714;9.386;2023-07-13T03:01:22;24.00;49.10
44851;DHT22;30583;48.714;9.386;2023-07-13T03:03:48;23.90;48.90
44851;DHT22;30583;48.714;9.386;2023-07-13T03:06:15;23.70;49.20
44851;DHT22;30583;48.714;9.386;2023-07-13T03:08:42;23.80;49.30
44851;DHT22;30583;48.714;9.386;2023-07-13T03:11:10;23.70;49.50
44851;DHT22;30583;48.714;9.386;2023-07-13T03:13:37;23.60;49.50
44851;DHT22;30583;48.714;9.386;2023-07-13T03:16:03;23.50;49.80
44851;DHT22;30583;48.714;9.386;2023-07-13T03:18:29;23.50;49.90
44851;DHT22;30583;48.714;9.386;2023-07-13T03:20:55;23.50;49.90
44851;DHT22;30583;48.714;9.386;2023-07-13T03:23:22;23.70;49.40
44851;DHT22;30583;48.714;9.386;2023-07-13T03:25:48;23.60;48.70
44851;DHT22;30583;48.714;9.386;2023-07-13T03:28:14;23.70;49.20
44851;DHT22;30583;48.714;9.386;2023-07-13T03:30:40;23.60;49.60
44851;DHT22;30583;48.714;9.386;2023-07-13T03:33:06;23.60;49.90
44851;DHT22;30583;48.714;9.386;2023-07-13T03:35:32;23.50;50.10
44851;DHT22;30583;48.714;9.386;2023-07-13T03:37:58;23.50;50.10
44851;DHT22;30583;48.714;9.386;2023-07-13T03:40:25;23.50;50.30
44851;DHT22;30583;48.714;9.386;2023-07-13T03:42:51;23.50;50.00
44851;DHT22;30583;48.714;9.386;2023-07-13T03:45:18;23.30;50.50
44851;DHT22;30583;48.714;9.386;2023-07-13T03:47:44;23.50;50.20
44851;DHT22;30583;48.714;9.386;2023-07-13T03:50:09;23.20;50.80
44851;DHT22;30583;48.714;9.386;2023-07-13T03:52:35;23.30;50.70
44851;DHT22;30583;48.714;9.386;2023-07-13T03:55:01;23.30;50.80
44851;DHT22;30583;48.714;9.386;2023-07-13T03:57:26;23.20;50.90
44851;DHT22;30583;48.714;9.386;2023-07-13T03:59:52;23.40;50.90
44851;DHT22;30583;48.714;9.386;2023-07-13T04:02:18;23.30;50.90
44851;DHT22;30583;48.714;9.386;2023-07-13T04:04:43;23.30;51.30
44851;DHT22;30583;48.714;9.386;2023-07-13T04:07:09;23.00;51.80
44851;DHT22;30583;48.714;9.386;2023-07-13T04:09:35;23.10;52.20
44851;DHT22;30583;48.714;9.386;2023-07-13T04:12:01;23.40;52.10
44851;DHT22;30583;48.714;9.386;2023-07-13T04:14:27;23.60;52.30
44851;DHT22;30583;48.714;9.386;2023-07-13T04:16:53;23.40;52.40
44851;DHT22;30583;48.714;9.386;2023-07-13T04:19:20;23.50;52.00
44851;DHT22;30583;48.714;9.386;2023-07-13T04:21:46;23.50;51.90
44851;DHT22;30583;48.714;9.386;2023-07-13T04:24:12;23.40;52.30
44851;DHT22;30583;48.714;9.386;2023-07-13T04:26:38;23.30;52.20
44851;DHT22;30583;48.714;9.386;2023-07-13T04:29:05;23.30;52.10
44851;DHT22;30583;48.714;9.386;2023-07-13T04:31:31;23.30;52.40
44851;DHT22;30583;48.714;9.386;2023-07-13T04:33:57;23.30;52.40
44851;DHT22;30583;48.714;9.386;2023-07-13T04:36:23;23.40;52.40
44851;DHT22;30583;48.714;9.386;2023-07-13T04:38:52;23.40;52.10
44851;DHT22;30583;48.714;9.386;2023-07-13T04:41:20;23.90;56.50
44851;DHT22;30583;48.714;9.386;2023-07-13T04:43:46;24.70;54.70
44851;DHT22;30583;48.714;9.386;2023-07-13T04:46:14;24.90;53.90
44851;DHT22;30583;48.714;9.386;2023-07-13T04:48:40;25.00;53.20
44851;DHT22;30583;48.714;9.386;2023-07-13T04:51:06;25.10;53.10
44851;DHT22;30583;48.714;9.386;2023-07-13T04:53:32;25.10;52.80
44851;DHT22;30583;48.714;9.386;2023-07-13T04:56:00;25.10;52.10
44851;DHT22;30583;48.714;9.386;2023-07-13T04:58:26;25.10;52.00
44851;DHT22;30583;48.714;9.386;2023-07-13T05:00:53;25.10;52.40
44851;DHT22;30583;48.714;9.386;2023-07-13T05:03:19;25.20;51.80
44851;DHT22;30583;48.714;9.386;2023-07-13T05:05:54;25.10;52.20
44851;DHT22;30583;48.714;9.386;2023-07-13T05:08:20;25.00;52.10
44851;DHT22;30583;48.714;9.386;2023-07-13T05:10:46;25.10;52.00
44851;DHT22;30583;48.714;9.386;2023-07-13T05:13:11;25.00;52.00
44851;DHT22;30583;48.714;9.386;2023-07-13T05:15:37;25.00;51.90
44851;DHT22;30583;48.714;9.386;2023-07-13T05:18:02;25.10;51.70
44851;DHT22;30583;48.714;9.386;2023-07-13T05:20:28;25.00;51.70
44851;DHT22;30583;48.714;9.386;2023-07-13T05:22:54;25.10;51.50
44851;DHT22;30583;48.714;9.386;2023-07-13T05:25:20;25.10;51.60
44851;DHT22;30583;48.714;9.386;2023-07-13T05:27:46;25.10;51.00
44851;DHT22;30583;48.714;9.386;2023-07-13T05:30:12;25.10;50.70
44851;DHT22;30583;48.714;9.386;2023-07-13T05:32:38;25.20;50.60
44851;DHT22;30583;48.714;9.386;2023-07-13T05:35:04;25.00;50.80
44851;DHT22;30583;48.714;9.386;2023-07-13T05:37:30;25.00;50.90
44851;DHT22;30583;48.714;9.386;2023-07-13T05:39:56;25.00;50.80
44851;DHT22;30583;48.714;9.386;2023-07-13T05:42:21;24.70;50.90
44851;DHT22;30583;48.714;9.386;2023-07-13T05:44:47;24.50;51.90
44851;DHT22;30583;48.714;9.386;2023-07-13T05:47:12;23.70;52.40
44851;DHT22;30583;48.714;9.386;2023-07-13T05:49:40;22.90;53.00
44851;DHT22;30583;48.714;9.386;2023-07-13T05:52:06;22.80;54.70
44851;DHT22;30583;48.714;9.386;2023-07-13T05:54:31;23.40;52.30
44851;DHT22;30583;48.714;9.386;2023-07-13T05:56:57;22.70;52.00
44851;DHT22;30583;48.714;9.386;2023-07-13T05:59:22;22.40;52.90
44851;DHT22;30583;48.714;9.386;2023-07-13T06:01:49;22.30;53.40
44851;DHT22;30583;48.714;9.386;2023-07-13T06:04:14;22.20;53.50
44851;DHT22;30583;48.714;9.386;2023-07-13T06:06:40;22.40;53.00
44851;DHT22;30583;48.714;9.386;2023-07-13T06:09:06;22.30;53.40
44851;DHT22;30583;48.714;9.386;2023-07-13T06:11:31;22.60;51.50
44851;DHT22;30583;48.714;9.386;2023-07-13T06:13:57;22.10;52.30
44851;DHT22;30583;48.714;9.386;2023-07-13T06:16:23;22.10;51.40
44851;DHT22;30583;48.714;9.386;2023-07-13T06:18:48;21.90;51.40
44851;DHT22;30583;48.714;9.386;2023-07-13T06:21:16;22.20;52.00
44851;DHT22;30583;48.714;9.386;2023-07-13T06:23:43;22.40;49.10
44851;DHT22;30583;48.714;9.386;2023-07-13T06:26:10;22.20;49.90
44851;DHT22;30583;48.714;9.386;2023-07-13T06:28:36;22.00;50.40
44851;DHT22;30583;48.714;9.386;2023-07-13T06:31:06;22.10;51.10
44851;DHT22;30583;48.714;9.386;2023-07-13T06:33:32;22.40;50.00
44851;DHT22;30583;48.714;9.386;2023-07-13T06:35:57;22.10;50.30
44851;DHT22;30583;48.714;9.386;2023-07-13T06:38:23;22.00;50.90
44851;DHT22;30583;48.714;9.386;2023-07-13T06:40:49;22.00;50.70
44851;DHT22;30583;48.714;9.386;2023-07-13T06:43:14;22.20;50.10
44851;DHT22;30583;48.714;9.386;2023-07-13T06:45:45;22.10;50.30
44851;DHT22;30583;48.714;9.386;2023-07-13T06:48:13;22.20;49.80
44851;DHT22;30583;48.714;9.386;2023-07-13T06:50:39;22.10;49.00
44851;DHT22;30583;48.714;9.386;2023-07-13T06:53:04;22.20;49.00
44851;DHT22;30583;48.714;9.386;2023-07-13T06:55:30;22.00;49.00
44851;DHT22;30583;48.714;9.386;2023-07-13T06:57:55;22.10;49.70
44851;DHT22;30583;48.714;9.386;2023-07-13T07:00:21;22.20;49.40
44851;DHT22;30583;48.714;9.386;2023-07-13T07:02:47;22.10;49.40
44851;DHT22;30583;48.714;9.386;2023-07-13T07:05:12;22.30;49.30
44851;DHT22;30583;48.714;9.386;2023-07-13T07:07:38;22.70;48.00
44851;DHT22;30583;48.714;9.386;2023-07-13T07:10:04;22.60;47.90
44851;DHT22;30583;48.714;9.386;2023-07-13T07:12:29;22.40;48.30
44851;DHT22;30583;48.714;9.386;2023-07-13T07:14:55;23.20;47.20
44851;DHT22;30583;48.714;9.386;2023-07-13T07:17:21;23.10;45.20
44851;DHT22;30583;48.714;9.386;2023-07-13T07:19:46;23.40;45.70
44851;DHT22;30583;48.714;9.386;2023-07-13T07:22:12;23.80;44.70
44851;DHT22;30583;48.714;9.386;2023-07-13T07:24:37;24.10;44.20
44851;DHT22;30583;48.714;9.386;2023-07-13T07:27:03;24.00;44.60
44851;DHT22;30583;48.714;9.386;2023-07-13T07:29:29;23.70;44.90
44851;DHT22;30583;48.714;9.386;2023-07-13T07:31:54;23.30;44.40
44851;DHT22;30583;48.714;9.386;2023-07-13T07:34:20;22.90;45.70
44851;DHT22;30583;48.714;9.386;2023-07-13T07:36:46;22.90;45.50
44851;DHT22;30583;48.714;9.386;2023-07-13T07:39:11;22.90;44.80
44851;DHT22;30583;48.714;9.386;2023-07-13T07:41:37;22.70;43.70
44851;DHT22;30583;48.714;9.386;2023-07-13T07:44:03;22.90;44.00
44851;DHT22;30583;48.714;9.386;2023-07-13T07:46:29;23.30;43.60
44851;DHT22;30583;48.714;9.386;2023-07-13T07:48:55;23.70;42.00
44851;DHT22;30583;48.714;9.386;2023-07-13T07:51:21;23.60;40.30
44851;DHT22;30583;48.714;9.386;2023-07-13T07:53:47;23.00;40.80
44851;DHT22;30583;48.714;9.386;2023-07-13T07:56:14;23.30;41.80
44851;DHT22;30583;48.714;9.386;2023-07-13T07:58:41;23.20;40.80
44851;DHT22;30583;48.714;9.386;2023-07-13T08:01:07;24.10;40.70
44851;DHT22;30583;48.714;9.386;2023-07-13T08:03:33;23.80;39.90
44851;DHT22;30583;48.714;9.386;2023-07-13T08:05:58;24.10;40.30
44851;DHT22;30583;48.714;9.386;2023-07-13T08:08:25;23.90;40.20
44851;DHT22;30583;48.714;9.386;2023-07-13T08:10:50;23.70;39.60
44851;DHT22;30583;48.714;9.386;2023-07-13T08:13:16;23.50;40.30
44851;DHT22;30583;48.714;9.386;2023-07-13T08:15:42;23.20;40.20
44851;DHT22;30583;48.714;9.386;2023-07-13T08:18:07;23.40;40.10
44851;DHT22;30583;48.714;9.386;2023-07-13T08:20:39;23.70;39.40
44851;DHT22;30583;48.714;9.386;2023-07-13T08:23:06;23.60;39.30
44851;DHT22;30583;48.714;9.386;2023-07-13T08:25:32;24.00;39.10
44851;DHT22;30583;48.714;9.386;2023-07-13T08:27:57;23.80;38.80
44851;DHT22;30583;48.714;9.386;2023-07-13T08:30:23;23.60;39.40
44851;DHT22;30583;48.714;9.386;2023-07-13T08:32:49;23.60;40.10
44851;DHT22;30583;48.714;9.386;2023-07-13T08:35:15;24.00;38.00
44851;DHT22;30583;48.714;9.386;2023-07-13T08:37:41;23.80;38.70
44851;DHT22;30583;48.714;9.386;2023-07-13T08:40:09;23.70;40.60
44851;DHT22;30583;48.714;9.386;2023-07-13T08:42:45;23.60;39.10
44851;DHT22;30583;48.714;9.386;2023-07-13T08:47:56;24.50;39.00
44851;DHT22;30583;48.714;9.386;2023-07-13T08:50:26;24.70;39.50
44851;DHT22;30583;48.714;9.386;2023-07-13T08:52:55;25.00;38.50
44851;DHT22;30583;48.714;9.386;2023-07-13T08:55:26;24.80;38.70
44851;DHT22;30583;48.714;9.386;2023-07-13T08:57:59;24.80;39.10
44851;DHT22;30583;48.714;9.386;2023-07-13T09:00:34;24.80;38.90
44851;DHT22;30583;48.714;9.386;2023-07-13T09:03:02;24.70;38.90
44851;DHT22;30583;48.714;9.386;2023-07-13T09:05:38;24.70;40.00
44851;DHT22;30583;48.714;9.386;2023-07-13T09:08:28;24.30;39.80
44851;DHT22;30583;48.714;9.386;2023-07-13T09:16:43;24.90;37.60
44851;DHT22;30583;48.714;9.386;2023-07-13T09:19:16;24.60;39.70
44851;DHT22;30583;48.714;9.386;2023-07-13T09:21:45;24.90;39.20
44851;DHT22;30583;48.714;9.386;2023-07-13T09:27:00;25.40;38.70
44851;DHT22;30583;48.714;9.386;2023-07-13T09:29:33;25.80;37.00
44851;DHT22;30583;48.714;9.386;2023-07-13T09:32:04;25.20;36.90
44851;DHT22;30583;48.714;9.386;2023-07-13T09:34:32;25.10;38.10
44851;DHT22;30583;48.714;9.386;2023-07-13T09:36:58;25.20;37.60
44851;DHT22;30583;48.714;9.386;2023-07-13T09:39:34;25.40;39.20
44851;DHT22;30583;48.714;9.386;2023-07-13T09:42:14;25.70;38.00
44851;DHT22;30583;48.714;9.386;2023-07-13T09:44:55;25.30;37.20
44851;DHT22;30583;48.714;9.386;2023-07-13T09:47:28;25.30;37.40
44851;DHT22;30583;48.714;9.386;2023-07-13T09:50:06;25.30;38.30
44851;DHT22;30583;48.714;9.386;2023-07-13T09:52:45;25.50;37.50
44851;DHT22;30583;48.714;9.386;2023-07-13T09:55:32;26.00;36.60
44851;DHT22;30583;48.714;9.386;2023-07-13T09:58:14;26.00;36.60
44851;DHT22;30583;48.714;9.386;2023-07-13T10:00:42;25.90;37.50
44851;DHT22;30583;48.714;9.386;2023-07-13T10:03:21;26.00;36.70
44851;DHT22;30583;48.714;9.386;2023-07-13T10:05:49;25.80;36.60
44851;DHT22;30583;48.714;9.386;2023-07-13T10:08:29;25.90;35.90
44851;DHT22;30583;48.714;9.386;2023-07-13T10:11:01;25.70;36.90
44851;DHT22;30583;48.714;9.386;2023-07-13T10:13:41;25.70;36.70
44851;DHT22;30583;48.714;9.386;2023-07-13T10:16:08;26.10;36.10
44851;DHT22;30583;48.714;9.386;2023-07-13T10:18:58;26.40;35.70
44851;DHT22;30583;48.714;9.386;2023-07-13T10:21:28;26.80;35.40
44851;DHT22;30583;48.714;9.386;2023-07-13T10:24:03;26.90;35.50
44851;DHT22;30583;48.714;9.386;2023-07-13T10:26:32;27.10;34.40
44851;DHT22;30583;48.714;9.386;2023-07-13T10:29:04;27.30;34.90
44851;DHT22;30583;48.714;9.386;2023-07-13T10:31:30;27.70;34.20
44851;DHT22;30583;48.714;9.386;2023-07-13T10:33:56;27.90;34.10
44851;DHT22;30583;48.714;9.386;2023-07-13T10:36:38;28.20;33.30
44851;DHT22;30583;48.714;9.386;2023-07-13T10:39:06;28.60;33.10
44851;DHT22;30583;48.714;9.386;2023-07-13T10:41:39;27.60;32.60
44851;DHT22;30583;48.714;9.386;2023-07-13T10:44:32;28.10;33.40
44851;DHT22;30583;48.714;9.386;2023-07-13T10:47:04;28.20;33.30
44851;DHT22;30583;48.714;9.386;2023-07-13T10:49:32;28.60;32.90
44851;DHT22;30583;48.714;9.386;2023-07-13T10:51:58;28.50;32.70
44851;DHT22;30583;48.714;9.386;2023-07-13T10:54:32;28.70;31.80
44851;DHT22;30583;48.714;9.386;2023-07-13T11:00:30;29.20;34.00
44851;DHT22;30583;48.714;9.386;2023-07-13T11:02:30;29.20;32.80
44851;DHT22;30583;48.714;9.386;2023-07-13T11:04:57;29.10;33.80
44851;DHT22;30583;48.714;9.386;2023-07-13T11:07:28;29.10;33.30
44851;DHT22;30583;48.714;9.386;2023-07-13T11:09:59;28.90;32.40
44851;DHT22;30583;48.714;9.386;2023-07-13T11:12:27;29.10;32.20
44851;DHT22;30583;48.714;9.386;2023-07-13T11:17:33;28.20;33.80
44851;DHT22;30583;48.714;9.386;2023-07-13T11:22:52;29.30;32.50
44851;DHT22;30583;48.714;9.386;2023-07-13T11:30:39;29.00;33.30
44851;DHT22;30583;48.714;9.386;2023-07-13T11:34:07;30.00;32.20
44851;DHT22;30583;48.714;9.386;2023-07-13T11:36:16;29.60;30.80
44851;DHT22;30583;48.714;9.386;2023-07-13T11:38:43;29.20;32.10
44851;DHT22;30583;48.714;9.386;2023-07-13T11:41:49;29.50;31.60
44851;DHT22;30583;48.714;9.386;2023-07-13T11:44:18;29.80;31.80
44851;DHT22;30583;48.714;9.386;2023-07-13T11:46:48;30.10;31.40
44851;DHT22;30583;48.714;9.386;2023-07-13T11:49:16;30.60;30.90
44851;DHT22;30583;48.714;9.386;2023-07-13T11:51:42;30.70;30.50
44851;DHT22;30583;48.714;9.386;2023-07-13T11:54:28;30.60;30.60
44851;DHT22;30583;48.714;9.386;2023-07-13T11:57:01;30.70;29.20
44851;DHT22;30583;48.714;9.386;2023-07-13T11:59:29;31.00;30.30
44851;DHT22;30583;48.714;9.386;2023-07-13T12:01:56;30.80;29.70
44851;DHT22;30583;48.714;9.386;2023-07-13T12:04:24;31.00;29.40
44851;DHT22;30583;48.714;9.386;2023-07-13T12:07:14;30.50;29.60
44851;DHT22;30583;48.714;9.386;2023-07-13T12:09:40;30.20;29.50
44851;DHT22;30583;48.714;9.386;2023-07-13T12:12:16;30.20;29.00
44851;DHT22;30583;48.714;9.386;2023-07-13T12:14:43;30.50;28.50
44851;DHT22;30583;48.714;9.386;2023-07-13T12:17:20;30.90;28.80
44851;DHT22;30583;48.714;9.386;2023-07-13T12:19:47;30.70;28.70
44851;DHT22;30583;48.714;9.386;2023-07-13T12:22:15;30.50;29.30
44851;DHT22;30583;48.714;9.386;2023-07-13T12:24:42;30.00;30.50
44851;DHT22;30583;48.714;9.386;2023-07-13T12:27:23;29.30;31.20
44851;DHT22;30583;48.714;9.386;2023-07-13T12:30:02;28.70;31.70
44851;DHT22;30583;48.714;9.386;2023-07-13T12:32:31;30.00;30.90
44851;DHT22;30583;48.714;9.386;2023-07-13T12:35:17;30.80;29.80
44851;DHT22;30583;48.714;9.386;2023-07-13T12:37:46;30.20;29.80
44851;DHT22;30583;48.714;9.386;2023-07-13T12:40:20;30.90;29.50
44851;DHT22;30583;48.714;9.386;2023-07-13T12:42:48;31.00;29.20
44851;DHT22;30583;48.714;9.386;2023-07-13T12:45:38;31.30;28.40
44851;DHT22;30583;48.714;9.386;2023-07-13T12:48:10;31.40;29.00
44851;DHT22;30583;48.714;9.386;2023-07-13T12:50:40;31.00;28.90
44851;DHT22;30583;48.714;9.386;2023-07-13T12:53:13;31.50;28.30
44851;DHT22;30583;48.714;9.386;2023-07-13T12:55:48;31.30;28.70
44851;DHT22;30583;48.714;9.386;2023-07-13T13:00:57;32.10;27.50
44851;DHT22;30583;48.714;9.386;2023-07-13T13:06:01;31.70;27.90
44851;DHT22;30583;48.714;9.386;2023-07-13T13:08:29;32.10;27.10
44851;DHT22;30583;48.714;9.386;2023-07-13T13:10:55;32.00;27.40
44851;DHT22;30583;48.714;9.386;2023-07-13T13:13:21;31.20;28.30
44851;DHT22;30583;48.714;9.386;2023-07-13T13:15:46;32.20;27.10
44851;DHT22;30583;48.714;9.386;2023-07-13T13:18:17;32.30;26.90
44851;DHT22;30583;48.714;9.386;2023-07-13T13:20:43;32.40;26.20
44851;DHT22;30583;48.714;9.386;2023-07-13T13:23:17;32.70;26.10
44851;DHT22;30583;48.714;9.386;2023-07-13T13:25:48;32.40;26.40
44851;DHT22;30583;48.714;9.386;2023-07-13T13:28:16;31.90;26.90
44851;DHT22;30583;48.714;9.386;2023-07-13T13:30:43;32.10;26.90
44851;DHT22;30583;48.714;9.386;2023-07-13T13:33:11;32.40;27.10
44851;DHT22;30583;48.714;9.386;2023-07-13T13:35:37;31.50;27.50
44851;DHT22;30583;48.714;9.386;2023-07-13T13:38:12;32.00;27.00
44851;DHT22;30583;48.714;9.386;2023-07-13T13:40:42;32.40;26.80
44851;DHT22;30583;48.714;9.386;2023-07-13T13:45:43;31.80;27.40
44851;DHT22;30583;48.714;9.386;2023-07-13T13:48:21;31.20;28.30
44851;DHT22;30583;48.714;9.386;2023-07-13T13:50:55;32.20;27.40
44851;DHT22;30583;48.714;9.386;2023-07-13T13:53:21;32.40;26.50
44851;DHT22;30583;48.714;9.386;2023-07-13T13:55:49;32.00;27.70
44851;DHT22;30583;48.714;9.386;2023-07-13T13:58:14;31.40;27.50
44851;DHT22;30583;48.714;9.386;2023-07-13T14:00:40;31.50;27.60
44851;DHT22;30583;48.714;9.386;2023-07-13T14:03:14;31.70;27.40
44851;DHT22;30583;48.714;9.386;2023-07-13T14:05:40;32.00;26.90
44851;DHT22;30583;48.714;9.386;2023-07-13T14:08:19;32.00;27.30
44851;DHT22;30583;48.714;9.386;2023-07-13T14:10:48;31.60;27.20
44851;DHT22;30583;48.714;9.386;2023-07-13T14:13:20;31.70;27.60
44851;DHT22;30583;48.714;9.386;2023-07-13T14:15:46;31.40;27.40
44851;DHT22;30583;48.714;9.386;2023-07-13T14:18:13;31.70;26.40
44851;DHT22;30583;48.714;9.386;2023-07-13T14:20:47;31.80;26.80
44851;DHT22;30583;48.714;9.386;2023-07-13T14:23:16;32.00;27.00
44851;DHT22;30583;48.714;9.386;2023-07-13T14:25:44;31.40;27.20
44851;DHT22;30583;48.714;9.386;2023-07-13T14:28:21;32.10;26.90
44851;DHT22;30583;48.714;9.386;2023-07-13T14:30:48;32.20;26.70
44851;DHT22;30583;48.714;9.386;2023-07-13T14:33:14;31.40;27.50
44851;DHT22;30583;48.714;9.386;2023-07-13T14:35:39;31.50;27.00
44851;DHT22;30583;48.714;9.386;2023-07-13T14:38:10;31.20;27.50
44851;DHT22;30583;48.714;9.386;2023-07-13T14:40:36;30.10;29.30
44851;DHT22;30583;48.714;9.386;2023-07-13T14:43:02;29.60;30.00
44851;DHT22;30583;48.714;9.386;2023-07-13T14:45:28;29.50;29.80
44851;DHT22;30583;48.714;9.386;2023-07-13T14:47:55;30.80;27.70
44851;DHT22;30583;48.714;9.386;2023-07-13T14:50:28;31.80;26.60
44851;DHT22;30583;48.714;9.386;2023-07-13T14:52:55;31.90;26.70
44851;DHT22;30583;48.714;9.386;2023-07-13T14:55:21;31.90;26.50
44851;DHT22;30583;48.714;9.386;2023-07-13T14:57:48;32.20;26.30
44851;DHT22;30583;48.714;9.386;2023-07-13T15:00:17;32.10;26.10
44851;DHT22;30583;48.714;9.386;2023-07-13T15:02:51;31.80;26.10
44851;DHT22;30583;48.714;9.386;2023-07-13T15:05:22;31.80;26.40
44851;DHT22;30583;48.714;9.386;2023-07-13T15:07:51;30.90;27.60
44851;DHT22;30583;48.714;9.386;2023-07-13T15:10:21;31.30;27.30
44851;DHT22;30583;48.714;9.386;2023-07-13T15:12:47;31.50;27.20
44851;DHT22;30583;48.714;9.386;2023-07-13T15:15:13;31.40;27.30
44851;DHT22;30583;48.714;9.386;2023-07-13T15:17:44;31.90;26.40
44851;DHT22;30583;48.714;9.386;2023-07-13T15:20:26;30.70;27.40
44851;DHT22;30583;48.714;9.386;2023-07-13T15:22:52;30.60;27.80
44851;DHT22;30583;48.714;9.386;2023-07-13T15:25:21;31.10;27.50
44851;DHT22;30583;48.714;9.386;2023-07-13T15:27:47;31.30;26.80
44851;DHT22;30583;48.714;9.386;2023-07-13T15:30:13;31.70;26.90
44851;DHT22;30583;48.714;9.386;2023-07-13T15:32:41;30.90;27.70
44851;DHT22;30583;48.714;9.386;2023-07-13T15:35:18;31.20;26.90
44851;DHT22;30583;48.714;9.386;2023-07-13T15:37:44;30.60;28.20
44851;DHT22;30583;48.714;9.386;2023-07-13T15:40:11;30.30;28.90
44851;DHT22;30583;48.714;9.386;2023-07-13T15:42:39;30.40;28.60
44851;DHT22;30583;48.714;9.386;2023-07-13T15:45:21;29.70;29.30
44851;DHT22;30583;48.714;9.386;2023-07-13T15:47:48;30.50;28.90
44851;DHT22;30583;48.714;9.386;2023-07-13T15:50:22;30.50;28.90
44851;DHT22;30583;48.714;9.386;2023-07-13T15:52:48;31.00;28.20
44851;DHT22;30583;48.714;9.386;2023-07-13T15:55:14;30.40;28.50
44851;DHT22;30583;48.714;9.386;2023-07-13T15:57:47;29.90;29.00
44851;DHT22;30583;48.714;9.386;2023-07-13T16:00:27;29.50;29.40
44851;DHT22;30583;48.714;9.386;2023-07-13T16:02:53;30.20;28.90
44851;DHT22;30583;48.714;9.386;2023-07-13T16:05:21;30.90;28.30
44851;DHT22;30583;48.714;9.386;2023-07-13T16:07:48;30.70;28.20
44851;DHT22;30583;48.714;9.386;2023-07-13T16:10:22;30.70;28.80